createdAt,value
2018-08-08T00:02:17.832Z,48.70
2018-08-08T00:07:20.922Z,48.90
2018-08-08T00:12:24.056Z,48.90
2018-08-08T00:17:27.145Z,49.10
2018-08-08T00:22:30.274Z,49.30
2018-08-08T00:27:33.404Z,49.70
2018-08-08T00:32:36.636Z,49.70
2018-08-08T00:37:39.769Z,49.70
2018-08-08T00:42:43.635Z,50.20
2018-08-08T00:47:47.569Z,50.50
2018-08-08T00:52:50.660Z,50.40
2018-08-08T00:57:53.768Z,50.50
2018-08-08T01:02:56.852Z,50.80
2018-08-08T01:07:59.960Z,50.80
2018-08-08T01:13:03.090Z,51.20
2018-08-08T01:18:06.636Z,51.00
2018-08-08T01:23:09.720Z,51.00
2018-08-08T01:28:12.796Z,51.30
2018-08-08T01:33:15.919Z,51.50
2018-08-08T01:38:19.006Z,52.10
2018-08-08T01:43:22.129Z,51.50
2018-08-08T01:48:25.204Z,51.30
2018-08-08T01:53:28.303Z,52.00
2018-08-08T01:58:31.387Z,52.10
2018-08-08T02:03:34.641Z,52.00
2018-08-08T02:08:37.739Z,52.10
2018-08-08T02:13:40.806Z,52.40
2018-08-08T02:18:43.945Z,52.80
2018-08-08T02:23:47.039Z,53.40
2018-08-08T02:28:50.195Z,52.50
2018-08-08T02:33:53.309Z,52.70
2018-08-08T02:38:56.429Z,52.90
2018-08-08T02:43:59.525Z,53.10
2018-08-08T02:49:02.697Z,53.20
2018-08-08T02:54:05.794Z,53.20
2018-08-08T02:59:08.894Z,53.60
2018-08-08T03:04:11.968Z,54.00
2018-08-08T03:09:15.265Z,53.90
2018-08-08T03:14:18.351Z,54.10
2018-08-08T03:19:21.455Z,54.70
2018-08-08T03:24:24.526Z,54.70
2018-08-08T03:29:27.595Z,54.90
2018-08-08T03:34:30.696Z,54.70
2018-08-08T03:39:33.752Z,55.20
2018-08-08T03:44:36.858Z,55.10
2018-08-08T03:49:39.967Z,55.20
2018-08-08T03:54:43.028Z,55.80
2018-08-08T03:59:46.117Z,55.90
2018-08-08T04:04:49.466Z,56.40
2018-08-08T04:09:52.597Z,55.90
2018-08-08T04:14:55.655Z,55.90
2018-08-08T04:19:58.756Z,56.40
2018-08-08T04:25:01.869Z,56.30
2018-08-08T04:30:07.525Z,56.50
2018-08-08T04:35:10.758Z,56.70
2018-08-08T04:40:16.881Z,57.50
2018-08-08T04:45:19.963Z,56.90
2018-08-08T04:50:23.049Z,57.00
2018-08-08T04:55:26.169Z,56.80
2018-08-08T05:00:29.421Z,57.00
2018-08-08T05:05:32.528Z,57.00
2018-08-08T05:10:35.615Z,56.90
2018-08-08T05:15:38.695Z,56.80
2018-08-08T05:20:41.793Z,56.70
2018-08-08T05:25:45.473Z,57.00
2018-08-08T05:30:48.577Z,56.80
2018-08-08T05:35:51.691Z,56.90
2018-08-08T05:40:54.778Z,56.80
2018-08-08T05:45:57.860Z,56.70
2018-08-08T05:51:00.952Z,56.60
2018-08-08T05:56:04.346Z,57.20
2018-08-08T06:01:07.456Z,57.00
2018-08-08T06:06:10.544Z,56.80
2018-08-08T06:11:13.677Z,56.90
2018-08-08T06:16:16.772Z,57.70
2018-08-08T06:21:19.861Z,57.60
2018-08-08T06:26:22.946Z,57.70
2018-08-08T06:31:26.025Z,58.10
2018-08-08T06:36:29.149Z,57.80
2018-08-08T06:41:32.251Z,58.60
2018-08-08T06:46:35.997Z,59.00
2018-08-08T06:51:39.100Z,58.60
2018-08-08T06:56:42.193Z,58.50
2018-08-08T07:01:45.280Z,58.10
2018-08-08T07:06:48.377Z,58.40
2018-08-08T07:11:51.460Z,58.00
2018-08-08T07:16:55.631Z,58.20
2018-08-08T07:21:58.712Z,57.30
2018-08-08T07:27:01.809Z,57.20
2018-08-08T07:32:04.895Z,56.70
2018-08-08T07:37:08.232Z,57.10
2018-08-08T07:42:11.369Z,57.20
2018-08-08T07:47:14.470Z,56.40
2018-08-08T07:52:17.552Z,55.80
2018-08-08T07:57:20.665Z,56.10
2018-08-08T08:02:23.776Z,55.30
2018-08-08T08:07:26.900Z,55.10
2018-08-08T08:12:30.020Z,55.30
2018-08-08T08:17:33.112Z,54.50
2018-08-08T08:22:36.292Z,54.30
2018-08-08T08:27:39.949Z,53.90
2018-08-08T08:32:43.540Z,53.70
2018-08-08T08:37:46.669Z,53.50
2018-08-08T08:42:49.828Z,53.60
2018-08-08T08:47:52.947Z,53.30
2018-08-08T08:52:56.072Z,52.90
2018-08-08T08:57:59.189Z,51.70
2018-08-08T09:03:02.306Z,51.50
2018-08-08T09:08:05.478Z,52.00
2018-08-08T09:13:08.653Z,51.90
2018-08-08T09:18:11.792Z,51.60
2018-08-08T09:23:14.922Z,51.30
2018-08-08T09:28:18.032Z,50.50
2018-08-08T09:33:26.559Z,50.20
2018-08-08T09:38:30.709Z,50.50
2018-08-08T09:43:33.816Z,49.90
2018-08-08T09:48:36.949Z,49.70
2018-08-08T09:53:40.066Z,49.20
2018-08-08T09:58:43.202Z,48.70
2018-08-08T10:03:51.604Z,48.80
2018-08-08T10:08:54.660Z,48.20
2018-08-08T10:13:57.796Z,48.00
2018-08-08T10:19:00.951Z,48.10
2018-08-08T10:24:04.001Z,47.90
2018-08-08T10:29:07.152Z,47.70
2018-08-08T10:34:10.270Z,47.00
2018-08-08T10:39:13.648Z,46.70
2018-08-08T10:44:16.719Z,46.70
2018-08-08T10:49:19.817Z,46.20
2018-08-08T10:54:22.931Z,46.50
2018-08-08T10:59:26.053Z,46.50
2018-08-08T11:04:29.147Z,46.30
2018-08-08T11:09:32.286Z,46.50
2018-08-08T11:14:35.466Z,46.60
2018-08-08T11:19:38.580Z,46.30
2018-08-08T11:24:41.704Z,46.40
2018-08-08T11:29:45.042Z,46.50
2018-08-08T11:34:48.131Z,45.60
2018-08-08T11:39:51.296Z,44.90
2018-08-08T11:44:54.383Z,44.60
2018-08-08T11:49:58.093Z,44.30
2018-08-08T11:55:01.169Z,44.60
2018-08-08T12:00:05.736Z,44.50
2018-08-08T12:05:09.345Z,43.40
2018-08-08T12:10:13.253Z,43.00
2018-08-08T12:15:16.380Z,43.20
2018-08-08T12:20:20.311Z,42.30
2018-08-08T12:25:23.416Z,42.10
2018-08-08T12:30:26.517Z,42.10
2018-08-08T12:35:29.766Z,41.90
2018-08-08T12:40:32.832Z,41.30
2018-08-08T12:45:35.929Z,41.20
2018-08-08T12:50:39.059Z,39.90
2018-08-08T12:55:42.198Z,40.30
2018-08-08T13:00:45.369Z,39.70
2018-08-08T13:05:48.473Z,40.20
2018-08-08T13:10:52.268Z,40.20
2018-08-08T13:15:55.389Z,40.30
2018-08-08T13:20:58.566Z,40.10
2018-08-08T13:26:01.633Z,40.20
2018-08-08T13:31:10.900Z,40.00
2018-08-08T13:36:14.047Z,39.60
2018-08-08T13:41:17.173Z,39.50
2018-08-08T13:46:20.322Z,39.80
2018-08-08T13:51:23.518Z,39.80
2018-08-08T13:56:26.680Z,39.70
2018-08-08T14:01:29.927Z,38.80
2018-08-08T14:06:33.013Z,38.70
2018-08-08T14:11:36.126Z,38.30
2018-08-08T14:16:39.312Z,37.70
2018-08-08T14:21:42.454Z,37.60
2018-08-08T14:26:45.568Z,37.00
2018-08-08T14:31:48.683Z,36.80
2018-08-08T14:36:51.808Z,37.70
2018-08-08T14:41:54.966Z,37.10
2018-08-08T14:46:58.124Z,36.90
2018-08-08T14:52:02.370Z,36.40
2018-08-08T14:57:05.554Z,36.20
2018-08-08T15:02:10.006Z,36.00
2018-08-08T15:07:13.173Z,35.90
2018-08-08T15:12:16.322Z,35.80
2018-08-08T15:17:19.454Z,35.60
2018-08-08T15:22:22.580Z,35.30
2018-08-08T15:27:25.717Z,35.10
2018-08-08T15:32:28.898Z,35.10
2018-08-08T15:37:32.297Z,35.00
2018-08-08T15:42:35.147Z,34.70
2018-08-08T15:47:38.328Z,34.70
2018-08-08T15:52:41.514Z,34.70
2018-08-08T15:57:44.663Z,34.60
2018-08-08T16:02:47.777Z,34.60
2018-08-08T16:07:50.901Z,34.70
2018-08-08T16:12:54.017Z,35.50
2018-08-08T16:17:57.179Z,34.70
2018-08-08T16:23:00.308Z,34.50
2018-08-08T16:28:03.509Z,34.50
2018-08-08T16:33:06.738Z,34.70
2018-08-08T16:38:09.859Z,34.70
2018-08-08T16:43:13.152Z,34.70
2018-08-08T16:48:16.274Z,34.80
2018-08-08T16:53:19.444Z,34.60
2018-08-08T16:58:22.596Z,34.70
2018-08-08T17:03:25.757Z,35.80
2018-08-08T17:08:28.925Z,35.10
2018-08-08T17:13:32.029Z,35.30
2018-08-08T17:18:35.179Z,35.50
2018-08-08T17:23:38.326Z,35.50
2018-08-08T17:28:41.448Z,35.10
2018-08-08T17:33:44.579Z,35.90
2018-08-08T17:38:47.694Z,35.90
2018-08-08T17:43:51.191Z,36.70
2018-08-08T17:48:53.953Z,36.10
2018-08-08T17:53:57.148Z,35.70
2018-08-08T17:59:00.278Z,35.80
2018-08-08T18:04:03.500Z,36.10
2018-08-08T18:09:07.797Z,36.30
2018-08-08T18:14:11.040Z,36.60
2018-08-08T18:19:14.161Z,36.90
2018-08-08T18:24:17.356Z,37.00
2018-08-08T18:29:20.634Z,37.30
2018-08-08T18:34:23.737Z,37.60
2018-08-08T18:39:26.982Z,37.20
2018-08-08T18:44:30.972Z,37.30
2018-08-08T18:49:38.329Z,37.50
2018-08-08T18:54:41.810Z,37.80
2018-08-08T18:59:44.915Z,38.00
2018-08-08T19:04:48.042Z,38.20
2018-08-08T19:09:51.176Z,38.30
2018-08-08T19:14:54.335Z,38.80
2018-08-08T19:19:57.497Z,38.40
2018-08-08T19:25:00.589Z,38.60
2018-08-08T19:30:03.988Z,39.50
2018-08-08T19:35:07.140Z,38.80
2018-08-08T19:40:10.248Z,39.10
2018-08-08T19:45:13.386Z,39.20
2018-08-08T19:50:16.492Z,39.50
2018-08-08T19:55:19.595Z,39.40
2018-08-08T20:00:22.704Z,39.80
2018-08-08T20:05:25.786Z,40.20
2018-08-08T20:10:28.929Z,40.40
2018-08-08T20:15:32.059Z,40.90
2018-08-08T20:20:35.162Z,40.90
2018-08-08T20:25:38.275Z,40.60
2018-08-08T20:30:41.401Z,41.30
2018-08-08T20:35:44.557Z,41.50
2018-08-08T20:40:47.658Z,41.50
2018-08-08T20:45:50.767Z,41.90
2018-08-08T20:50:53.921Z,42.00
2018-08-08T20:55:57.018Z,42.20
2018-08-08T21:01:00.181Z,42.50
2018-08-08T21:06:03.453Z,42.40
2018-08-08T21:11:06.628Z,43.20
2018-08-08T21:16:10.018Z,42.70
2018-08-08T21:21:13.104Z,43.10
2018-08-08T21:26:16.266Z,43.20
2018-08-08T21:31:19.412Z,43.70
2018-08-08T21:36:22.540Z,43.80
2018-08-08T21:41:25.638Z,43.80
2018-08-08T21:46:28.760Z,44.10
2018-08-08T21:51:31.997Z,43.60
2018-08-08T21:56:46.481Z,44.10
2018-08-08T22:02:01.104Z,44.50
2018-08-08T22:07:15.453Z,44.30
2018-08-08T22:12:29.760Z,44.40
2018-08-08T22:17:44.186Z,45.60
2018-08-08T22:22:47.279Z,45.00
2018-08-08T22:27:50.561Z,45.20
2018-08-08T22:32:53.697Z,45.40
2018-08-08T22:37:56.788Z,45.30
2018-08-08T22:42:59.902Z,45.60
2018-08-08T22:48:03.121Z,45.30
2018-08-08T22:53:06.287Z,45.60
2018-08-08T22:58:09.398Z,45.80
2018-08-08T23:03:12.525Z,45.70
2018-08-08T23:08:15.652Z,46.10
2018-08-08T23:13:18.777Z,46.20
2018-08-08T23:18:21.891Z,46.20
2018-08-08T23:23:25.014Z,46.20
2018-08-08T23:28:28.129Z,46.50
2018-08-08T23:33:31.196Z,46.60
2018-08-08T23:38:34.303Z,46.80
2018-08-08T23:43:37.409Z,46.90
2018-08-08T23:48:40.532Z,47.70
2018-08-08T23:53:43.628Z,47.00
2018-08-08T23:58:46.728Z,47.00
